sensor_id;sensor_type;location;lat;lon;timestamp;P1;P2;P0
70691;PMS5003;58267;51.156;17.044;2022-11-04T00:00:14;52;48;
70691;PMS5003;58267;51.156;17.044;2022-11-04T00:02:40;50;48;
70691;PMS5003;58267;51.156;17.044;2022-11-04T00:05:05;50;47;
70691;PMS5003;58267;51.156;17.044;2022-11-04T00:07:30;49;46;
70691;PMS5003;58267;51.156;17.044;2022-11-04T00:09:56;52;50;
70691;PMS5003;58267;51.156;17.044;2022-11-04T00:12:21;55;52;
70691;PMS5003;58267;51.156;17.044;2022-11-04T00:14:47;61;58;
70691;PMS5003;58267;51.156;17.044;2022-11-04T00:17:12;59;54;
70691;PMS5003;58267;51.156;17.044;2022-11-04T00:19:38;59;54;
70691;PMS5003;58267;51.156;17.044;2022-11-04T00:22:03;52;49;
70691;PMS5003;58267;51.156;17.044;2022-11-04T00:24:30;55;52;
70691;PMS5003;58267;51.156;17.044;2022-11-04T00:26:55;54;48;
70691;PMS5003;58267;51.156;17.044;2022-11-04T00:29:20;55;52;
70691;PMS5003;58267;51.156;17.044;2022-11-04T00:31:45;47;45;
70691;PMS5003;58267;51.156;17.044;2022-11-04T00:34:11;47;41;
70691;PMS5003;58267;51.156;17.044;2022-11-04T00:36:36;54;47;
70691;PMS5003;58267;51.156;17.044;2022-11-04T00:39:01;46;44;
70691;PMS5003;58267;51.156;17.044;2022-11-04T00:41:27;42;40;
70691;PMS5003;58267;51.156;17.044;2022-11-04T00:43:53;45;42;
70691;PMS5003;58267;51.156;17.044;2022-11-04T00:46:19;45;41;
70691;PMS5003;58267;51.156;17.044;2022-11-04T00:48:44;50;46;
70691;PMS5003;58267;51.156;17.044;2022-11-04T00:51:09;44;42;
70691;PMS5003;58267;51.156;17.044;2022-11-04T00:53:35;47;45;
70691;PMS5003;58267;51.156;17.044;2022-11-04T00:56:00;43;42;
70691;PMS5003;58267;51.156;17.044;2022-11-04T00:58:27;42;41;
70691;PMS5003;58267;51.156;17.044;2022-11-04T01:00:51;50;46;
70691;PMS5003;58267;51.156;17.044;2022-11-04T01:03:17;47;45;
70691;PMS5003;58267;51.156;17.044;2022-11-04T01:05:42;47;44;
70691;PMS5003;58267;51.156;17.044;2022-11-04T01:08:08;48;44;
70691;PMS5003;58267;51.156;17.044;2022-11-04T01:10:34;54;52;
70691;PMS5003;58267;51.156;17.044;2022-11-04T01:12:59;55;53;
70691;PMS5003;58267;51.156;17.044;2022-11-04T01:15:25;60;57;
70691;PMS5003;58267;51.156;17.044;2022-11-04T01:17:51;54;51;
70691;PMS5003;58267;51.156;17.044;2022-11-04T01:20:16;58;54;
70691;PMS5003;58267;51.156;17.044;2022-11-04T01:22:42;52;52;
70691;PMS5003;58267;51.156;17.044;2022-11-04T01:25:08;51;49;
70691;PMS5003;58267;51.156;17.044;2022-11-04T01:27:33;49;44;
70691;PMS5003;58267;51.156;17.044;2022-11-04T01:29:58;48;45;
70691;PMS5003;58267;51.156;17.044;2022-11-04T01:32:26;44;43;
70691;PMS5003;58267;51.156;17.044;2022-11-04T01:34:50;49;45;
70691;PMS5003;58267;51.156;17.044;2022-11-04T01:37:16;46;42;
70691;PMS5003;58267;51.156;17.044;2022-11-04T01:39:41;47;41;
70691;PMS5003;58267;51.156;17.044;2022-11-04T01:42:10;40;39;
70691;PMS5003;58267;51.156;17.044;2022-11-04T01:46:58;38;36;
70691;PMS5003;58267;51.156;17.044;2022-11-04T01:49:25;49;47;
70691;PMS5003;58267;51.156;17.044;2022-11-04T01:51:49;47;43;
70691;PMS5003;58267;51.156;17.044;2022-11-04T01:54:14;40;40;
70691;PMS5003;58267;51.156;17.044;2022-11-04T01:56:39;40;39;
70691;PMS5003;58267;51.156;17.044;2022-11-04T01:59:06;40;40;
70691;PMS5003;58267;51.156;17.044;2022-11-04T02:01:30;42;39;
70691;PMS5003;58267;51.156;17.044;2022-11-04T02:03:56;43;39;
70691;PMS5003;58267;51.156;17.044;2022-11-04T02:06:21;47;45;
70691;PMS5003;58267;51.156;17.044;2022-11-04T02:08:47;41;40;
70691;PMS5003;58267;51.156;17.044;2022-11-04T02:11:12;39;39;
70691;PMS5003;58267;51.156;17.044;2022-11-04T02:13:38;44;44;
70691;PMS5003;58267;51.156;17.044;2022-11-04T02:16:06;45;42;
70691;PMS5003;58267;51.156;17.044;2022-11-04T02:18:34;47;43;
70691;PMS5003;58267;51.156;17.044;2022-11-04T02:23:25;40;39;
70691;PMS5003;58267;51.156;17.044;2022-11-04T02:28:16;46;45;
70691;PMS5003;58267;51.156;17.044;2022-11-04T02:30:37;40;40;
70691;PMS5003;58267;51.156;17.044;2022-11-04T02:33:05;41;40;
70691;PMS5003;58267;51.156;17.044;2022-11-04T02:35:28;37;35;
70691;PMS5003;58267;51.156;17.044;2022-11-04T02:37:54;43;41;
70691;PMS5003;58267;51.156;17.044;2022-11-04T02:40:20;41;40;
70691;PMS5003;58267;51.156;17.044;2022-11-04T02:42:47;39;37;
70691;PMS5003;58267;51.156;17.044;2022-11-04T02:45:11;43;40;
70691;PMS5003;58267;51.156;17.044;2022-11-04T02:47:34;39;37;
70691;PMS5003;58267;51.156;17.044;2022-11-04T02:50:00;37;35;
70691;PMS5003;58267;51.156;17.044;2022-11-04T02:52:25;39;37;
70691;PMS5003;58267;51.156;17.044;2022-11-04T02:54:51;38;38;
70691;PMS5003;58267;51.156;17.044;2022-11-04T02:57:17;34;34;
70691;PMS5003;58267;51.156;17.044;2022-11-04T02:59:43;38;36;
70691;PMS5003;58267;51.156;17.044;2022-11-04T03:02:07;43;40;
70691;PMS5003;58267;51.156;17.044;2022-11-04T03:04:33;39;37;
70691;PMS5003;58267;51.156;17.044;2022-11-04T03:06:58;43;40;
70691;PMS5003;58267;51.156;17.044;2022-11-04T03:09:23;36;35;
70691;PMS5003;58267;51.156;17.044;2022-11-04T03:11:50;42;40;
70691;PMS5003;58267;51.156;17.044;2022-11-04T03:14:15;43;41;
70691;PMS5003;58267;51.156;17.044;2022-11-04T03:16:40;39;39;
70691;PMS5003;58267;51.156;17.044;2022-11-04T03:19:06;38;34;
70691;PMS5003;58267;51.156;17.044;2022-11-04T03:21:31;38;36;
70691;PMS5003;58267;51.156;17.044;2022-11-04T03:23:55;42;41;
70691;PMS5003;58267;51.156;17.044;2022-11-04T03:26:22;39;37;
70691;PMS5003;58267;51.156;17.044;2022-11-04T03:28:49;41;40;
70691;PMS5003;58267;51.156;17.044;2022-11-04T03:31:16;36;35;
70691;PMS5003;58267;51.156;17.044;2022-11-04T03:33:39;39;38;
70691;PMS5003;58267;51.156;17.044;2022-11-04T03:36:04;36;35;
70691;PMS5003;58267;51.156;17.044;2022-11-04T03:38:29;39;37;
70691;PMS5003;58267;51.156;17.044;2022-11-04T03:40:54;35;33;
70691;PMS5003;58267;51.156;17.044;2022-11-04T03:43:20;41;36;
70691;PMS5003;58267;51.156;17.044;2022-11-04T03:45:45;39;37;
70691;PMS5003;58267;51.156;17.044;2022-11-04T03:48:11;32;29;
70691;PMS5003;58267;51.156;17.044;2022-11-04T03:50:39;37;34;
70691;PMS5003;58267;51.156;17.044;2022-11-04T03:53:01;33;32;
70691;PMS5003;58267;51.156;17.044;2022-11-04T03:55:28;34;32;
70691;PMS5003;58267;51.156;17.044;2022-11-04T03:57:53;35;33;
70691;PMS5003;58267;51.156;17.044;2022-11-04T04:00:18;35;32;
70691;PMS5003;58267;51.156;17.044;2022-11-04T04:02:49;34;33;
70691;PMS5003;58267;51.156;17.044;2022-11-04T04:05:10;35;32;
70691;PMS5003;58267;51.156;17.044;2022-11-04T04:07:36;45;44;
70691;PMS5003;58267;51.156;17.044;2022-11-04T04:10:02;46;45;
70691;PMS5003;58267;51.156;17.044;2022-11-04T04:12:25;46;43;
70691;PMS5003;58267;51.156;17.044;2022-11-04T04:14:51;33;33;
70691;PMS5003;58267;51.156;17.044;2022-11-04T04:17:17;37;31;
70691;PMS5003;58267;51.156;17.044;2022-11-04T04:19:43;37;37;
70691;PMS5003;58267;51.156;17.044;2022-11-04T04:22:08;36;35;
70691;PMS5003;58267;51.156;17.044;2022-11-04T04:24:38;47;42;
70691;PMS5003;58267;51.156;17.044;2022-11-04T04:27:03;44;42;
70691;PMS5003;58267;51.156;17.044;2022-11-04T04:29:28;41;38;
70691;PMS5003;58267;51.156;17.044;2022-11-04T04:31:53;41;39;
70691;PMS5003;58267;51.156;17.044;2022-11-04T04:34:20;38;36;
70691;PMS5003;58267;51.156;17.044;2022-11-04T04:36:45;33;33;
70691;PMS5003;58267;51.156;17.044;2022-11-04T04:39:10;38;38;
70691;PMS5003;58267;51.156;17.044;2022-11-04T04:41:36;38;37;
70691;PMS5003;58267;51.156;17.044;2022-11-04T04:44:01;30;29;
70691;PMS5003;58267;51.156;17.044;2022-11-04T04:46:27;43;41;
70691;PMS5003;58267;51.156;17.044;2022-11-04T04:48:53;40;38;
70691;PMS5003;58267;51.156;17.044;2022-11-04T04:51:18;40;36;
70691;PMS5003;58267;51.156;17.044;2022-11-04T04:53:43;40;38;
70691;PMS5003;58267;51.156;17.044;2022-11-04T04:56:09;43;41;
70691;PMS5003;58267;51.156;17.044;2022-11-04T04:58:35;39;36;
70691;PMS5003;58267;51.156;17.044;2022-11-04T05:01:00;42;40;
70691;PMS5003;58267;51.156;17.044;2022-11-04T05:03:25;47;44;
70691;PMS5003;58267;51.156;17.044;2022-11-04T05:05:51;41;41;
70691;PMS5003;58267;51.156;17.044;2022-11-04T05:08:17;49;44;
70691;PMS5003;58267;51.156;17.044;2022-11-04T05:10:42;46;41;
70691;PMS5003;58267;51.156;17.044;2022-11-04T05:13:08;43;39;
70691;PMS5003;58267;51.156;17.044;2022-11-04T05:15:33;44;43;
70691;PMS5003;58267;51.156;17.044;2022-11-04T05:18:00;48;41;
70691;PMS5003;58267;51.156;17.044;2022-11-04T05:20:24;43;40;
70691;PMS5003;58267;51.156;17.044;2022-11-04T05:22:49;50;45;
70691;PMS5003;58267;51.156;17.044;2022-11-04T05:25:15;42;38;
70691;PMS5003;58267;51.156;17.044;2022-11-04T05:27:40;46;41;
70691;PMS5003;58267;51.156;17.044;2022-11-04T05:30:07;44;40;
70691;PMS5003;58267;51.156;17.044;2022-11-04T05:32:32;40;40;
70691;PMS5003;58267;51.156;17.044;2022-11-04T05:34:57;47;40;
70691;PMS5003;58267;51.156;17.044;2022-11-04T05:37:23;47;45;
70691;PMS5003;58267;51.156;17.044;2022-11-04T05:39:49;48;46;
70691;PMS5003;58267;51.156;17.044;2022-11-04T05:42:14;49;44;
70691;PMS5003;58267;51.156;17.044;2022-11-04T05:44:39;45;43;
70691;PMS5003;58267;51.156;17.044;2022-11-04T05:47:04;44;42;
70691;PMS5003;58267;51.156;17.044;2022-11-04T05:49:30;50;46;
70691;PMS5003;58267;51.156;17.044;2022-11-04T05:51:55;46;42;
70691;PMS5003;58267;51.156;17.044;2022-11-04T05:54:20;52;48;
70691;PMS5003;58267;51.156;17.044;2022-11-04T05:56:46;42;37;
70691;PMS5003;58267;51.156;17.044;2022-11-04T05:59:12;44;42;
70691;PMS5003;58267;51.156;17.044;2022-11-04T06:01:37;48;45;
70691;PMS5003;58267;51.156;17.044;2022-11-04T06:04:03;53;50;
70691;PMS5003;58267;51.156;17.044;2022-11-04T06:06:30;48;44;
70691;PMS5003;58267;51.156;17.044;2022-11-04T06:08:54;46;42;
70691;PMS5003;58267;51.156;17.044;2022-11-04T06:11:20;48;43;
70691;PMS5003;58267;51.156;17.044;2022-11-04T06:13:45;47;44;
70691;PMS5003;58267;51.156;17.044;2022-11-04T06:16:11;51;49;
70691;PMS5003;58267;51.156;17.044;2022-11-04T06:18:37;51;47;
70691;PMS5003;58267;51.156;17.044;2022-11-04T06:21:07;45;44;
70691;PMS5003;58267;51.156;17.044;2022-11-04T06:23:28;48;45;
70691;PMS5003;58267;51.156;17.044;2022-11-04T06:25:54;50;47;
70691;PMS5003;58267;51.156;17.044;2022-11-04T06:28:19;47;44;
70691;PMS5003;58267;51.156;17.044;2022-11-04T06:30:45;44;43;
70691;PMS5003;58267;51.156;17.044;2022-11-04T06:33:11;50;48;
70691;PMS5003;58267;51.156;17.044;2022-11-04T06:35:36;56;54;
70691;PMS5003;58267;51.156;17.044;2022-11-04T06:38:02;51;48;
70691;PMS5003;58267;51.156;17.044;2022-11-04T06:40:27;53;53;
70691;PMS5003;58267;51.156;17.044;2022-11-04T06:42:53;47;45;
70691;PMS5003;58267;51.156;17.044;2022-11-04T06:45:18;53;51;
70691;PMS5003;58267;51.156;17.044;2022-11-04T06:47:43;55;51;
70691;PMS5003;58267;51.156;17.044;2022-11-04T06:50:09;49;47;
70691;PMS5003;58267;51.156;17.044;2022-11-04T06:52:34;56;51;
70691;PMS5003;58267;51.156;17.044;2022-11-04T06:54:59;55;52;
70691;PMS5003;58267;51.156;17.044;2022-11-04T06:57:25;56;50;
70691;PMS5003;58267;51.156;17.044;2022-11-04T06:59:50;56;53;
70691;PMS5003;58267;51.156;17.044;2022-11-04T07:02:16;49;46;
70691;PMS5003;58267;51.156;17.044;2022-11-04T07:04:42;57;53;
70691;PMS5003;58267;51.156;17.044;2022-11-04T07:07:07;56;52;
70691;PMS5003;58267;51.156;17.044;2022-11-04T07:09:32;55;55;
70691;PMS5003;58267;51.156;17.044;2022-11-04T07:11:58;55;52;
70691;PMS5003;58267;51.156;17.044;2022-11-04T07:14:24;49;47;
70691;PMS5003;58267;51.156;17.044;2022-11-04T07:16:50;52;48;
70691;PMS5003;58267;51.156;17.044;2022-11-04T07:19:16;55;50;
70691;PMS5003;58267;51.156;17.044;2022-11-04T07:21:41;61;57;
70691;PMS5003;58267;51.156;17.044;2022-11-04T07:24:07;59;57;
70691;PMS5003;58267;51.156;17.044;2022-11-04T07:26:32;55;53;
70691;PMS5003;58267;51.156;17.044;2022-11-04T07:28:58;57;51;
70691;PMS5003;58267;51.156;17.044;2022-11-04T07:31:23;58;52;
70691;PMS5003;58267;51.156;17.044;2022-11-04T07:33:49;54;53;
70691;PMS5003;58267;51.156;17.044;2022-11-04T07:36:14;52;50;
70691;PMS5003;58267;51.156;17.044;2022-11-04T07:38:40;52;49;
70691;PMS5003;58267;51.156;17.044;2022-11-04T07:41:05;56;53;
70691;PMS5003;58267;51.156;17.044;2022-11-04T07:43:31;50;47;
70691;PMS5003;58267;51.156;17.044;2022-11-04T07:45:58;55;50;
70691;PMS5003;58267;51.156;17.044;2022-11-04T07:48:22;53;50;
70691;PMS5003;58267;51.156;17.044;2022-11-04T07:50:48;49;45;
70691;PMS5003;58267;51.156;17.044;2022-11-04T07:53:13;50;47;
70691;PMS5003;58267;51.156;17.044;2022-11-04T07:55:39;54;52;
70691;PMS5003;58267;51.156;17.044;2022-11-04T07:58:04;52;50;
70691;PMS5003;58267;51.156;17.044;2022-11-04T08:00:30;50;47;
70691;PMS5003;58267;51.156;17.044;2022-11-04T08:02:55;48;42;
70691;PMS5003;58267;51.156;17.044;2022-11-04T08:05:21;50;47;
70691;PMS5003;58267;51.156;17.044;2022-11-04T08:07:47;57;50;
70691;PMS5003;58267;51.156;17.044;2022-11-04T08:10:12;49;48;
70691;PMS5003;58267;51.156;17.044;2022-11-04T08:12:39;46;46;
70691;PMS5003;58267;51.156;17.044;2022-11-04T08:15:05;46;43;
70691;PMS5003;58267;51.156;17.044;2022-11-04T08:17:30;46;45;
70691;PMS5003;58267;51.156;17.044;2022-11-04T08:19:55;52;48;
70691;PMS5003;58267;51.156;17.044;2022-11-04T08:22:21;46;45;
70691;PMS5003;58267;51.156;17.044;2022-11-04T08:24:47;49;45;
70691;PMS5003;58267;51.156;17.044;2022-11-04T08:27:12;50;49;
70691;PMS5003;58267;51.156;17.044;2022-11-04T08:29:37;48;47;
70691;PMS5003;58267;51.156;17.044;2022-11-04T08:32:03;41;40;
70691;PMS5003;58267;51.156;17.044;2022-11-04T08:34:28;54;51;
70691;PMS5003;58267;51.156;17.044;2022-11-04T08:36:53;61;52;
70691;PMS5003;58267;51.156;17.044;2022-11-04T08:39:19;45;41;
70691;PMS5003;58267;51.156;17.044;2022-11-04T08:41:44;45;44;
70691;PMS5003;58267;51.156;17.044;2022-11-04T08:44:10;45;43;
70691;PMS5003;58267;51.156;17.044;2022-11-04T08:46:37;51;49;
70691;PMS5003;58267;51.156;17.044;2022-11-04T08:49:02;52;49;
70691;PMS5003;58267;51.156;17.044;2022-11-04T08:51:27;48;44;
70691;PMS5003;58267;51.156;17.044;2022-11-04T08:53:52;48;48;
70691;PMS5003;58267;51.156;17.044;2022-11-04T08:56:18;43;42;
70691;PMS5003;58267;51.156;17.044;2022-11-04T08:58:43;52;47;
70691;PMS5003;58267;51.156;17.044;2022-11-04T09:01:09;41;41;
70691;PMS5003;58267;51.156;17.044;2022-11-04T09:03:36;52;48;
70691;PMS5003;58267;51.156;17.044;2022-11-04T09:06:01;51;47;
70691;PMS5003;58267;51.156;17.044;2022-11-04T09:08:26;48;47;
70691;PMS5003;58267;51.156;17.044;2022-11-04T09:10:51;51;49;
70691;PMS5003;58267;51.156;17.044;2022-11-04T09:13:17;41;38;
70691;PMS5003;58267;51.156;17.044;2022-11-04T09:15:42;43;40;
70691;PMS5003;58267;51.156;17.044;2022-11-04T09:18:09;52;46;
70691;PMS5003;58267;51.156;17.044;2022-11-04T09:20:34;48;41;
70691;PMS5003;58267;51.156;17.044;2022-11-04T09:22:59;48;44;
70691;PMS5003;58267;51.156;17.044;2022-11-04T09:25:25;48;46;
70691;PMS5003;58267;51.156;17.044;2022-11-04T09:27:50;42;39;
70691;PMS5003;58267;51.156;17.044;2022-11-04T09:30:15;43;41;
70691;PMS5003;58267;51.156;17.044;2022-11-04T09:32:41;50;46;
70691;PMS5003;58267;51.156;17.044;2022-11-04T09:35:07;43;39;
70691;PMS5003;58267;51.156;17.044;2022-11-04T09:37:32;53;47;
70691;PMS5003;58267;51.156;17.044;2022-11-04T09:39:57;44;44;
70691;PMS5003;58267;51.156;17.044;2022-11-04T09:42:27;44;41;
70691;PMS5003;58267;51.156;17.044;2022-11-04T09:44:50;47;45;
70691;PMS5003;58267;51.156;17.044;2022-11-04T09:47:14;46;46;
70691;PMS5003;58267;51.156;17.044;2022-11-04T09:49:40;41;39;
70691;PMS5003;58267;51.156;17.044;2022-11-04T09:52:06;47;44;
70691;PMS5003;58267;51.156;17.044;2022-11-04T09:54:31;41;38;
70691;PMS5003;58267;51.156;17.044;2022-11-04T09:56:56;46;43;
70691;PMS5003;58267;51.156;17.044;2022-11-04T09:59:23;47;44;
70691;PMS5003;58267;51.156;17.044;2022-11-04T10:01:48;40;38;
70691;PMS5003;58267;51.156;17.044;2022-11-04T10:04:17;51;48;
70691;PMS5003;58267;51.156;17.044;2022-11-04T10:06:39;42;40;
70691;PMS5003;58267;51.156;17.044;2022-11-04T10:09:07;44;40;
70691;PMS5003;58267;51.156;17.044;2022-11-04T10:11:29;38;37;
70691;PMS5003;58267;51.156;17.044;2022-11-04T10:13:58;45;42;
70691;PMS5003;58267;51.156;17.044;2022-11-04T10:16:22;45;39;
70691;PMS5003;58267;51.156;17.044;2022-11-04T10:18:48;44;42;
70691;PMS5003;58267;51.156;17.044;2022-11-04T10:21:12;50;47;
70691;PMS5003;58267;51.156;17.044;2022-11-04T10:23:36;38;38;
70691;PMS5003;58267;51.156;17.044;2022-11-04T10:26:03;41;38;
70691;PMS5003;58267;51.156;17.044;2022-11-04T10:28:29;42;41;
70691;PMS5003;58267;51.156;17.044;2022-11-04T10:30:52;44;41;
70691;PMS5003;58267;51.156;17.044;2022-11-04T10:33:20;47;43;
70691;PMS5003;58267;51.156;17.044;2022-11-04T10:35:44;39;39;
70691;PMS5003;58267;51.156;17.044;2022-11-04T10:38:12;47;44;
70691;PMS5003;58267;51.156;17.044;2022-11-04T10:40:35;43;40;
70691;PMS5003;58267;51.156;17.044;2022-11-04T10:42:59;40;39;
70691;PMS5003;58267;51.156;17.044;2022-11-04T10:45:25;43;41;
70691;PMS5003;58267;51.156;17.044;2022-11-04T10:47:50;42;41;
70691;PMS5003;58267;51.156;17.044;2022-11-04T10:50:18;43;41;
70691;PMS5003;58267;51.156;17.044;2022-11-04T10:52:40;39;38;
70691;PMS5003;58267;51.156;17.044;2022-11-04T10:55:10;46;43;
70691;PMS5003;58267;51.156;17.044;2022-11-04T10:57:32;41;41;
70691;PMS5003;58267;51.156;17.044;2022-11-04T10:59:58;47;44;
70691;PMS5003;58267;51.156;17.044;2022-11-04T11:04:49;43;41;
70691;PMS5003;58267;51.156;17.044;2022-11-04T11:07:14;44;40;
70691;PMS5003;58267;51.156;17.044;2022-11-04T11:09:42;43;41;
70691;PMS5003;58267;51.156;17.044;2022-11-04T11:12:16;40;38;
70691;PMS5003;58267;51.156;17.044;2022-11-04T11:14:32;39;37;
70691;PMS5003;58267;51.156;17.044;2022-11-04T11:16:57;41;39;
70691;PMS5003;58267;51.156;17.044;2022-11-04T11:19:22;48;44;
70691;PMS5003;58267;51.156;17.044;2022-11-04T11:21:48;42;40;
70691;PMS5003;58267;51.156;17.044;2022-11-04T11:24:14;50;46;
70691;PMS5003;58267;51.156;17.044;2022-11-04T11:26:38;40;36;
70691;PMS5003;58267;51.156;17.044;2022-11-04T11:29:03;43;40;
70691;PMS5003;58267;51.156;17.044;2022-11-04T11:31:33;36;35;
70691;PMS5003;58267;51.156;17.044;2022-11-04T11:33:54;42;38;
70691;PMS5003;58267;51.156;17.044;2022-11-04T11:36:20;44;40;
70691;PMS5003;58267;51.156;17.044;2022-11-04T11:41:11;40;40;
70691;PMS5003;58267;51.156;17.044;2022-11-04T11:43:37;52;40;
70691;PMS5003;58267;51.156;17.044;2022-11-04T11:46:02;44;42;
70691;PMS5003;58267;51.156;17.044;2022-11-04T11:48:28;43;42;
70691;PMS5003;58267;51.156;17.044;2022-11-04T11:50:53;39;36;
70691;PMS5003;58267;51.156;17.044;2022-11-04T11:53:18;45;41;
70691;PMS5003;58267;51.156;17.044;2022-11-04T11:55:45;46;44;
70691;PMS5003;58267;51.156;17.044;2022-11-04T11:58:10;38;36;
70691;PMS5003;58267;51.156;17.044;2022-11-04T12:00:35;36;35;
70691;PMS5003;58267;51.156;17.044;2022-11-04T12:03:01;45;41;
70691;PMS5003;58267;51.156;17.044;2022-11-04T12:05:26;38;35;
70691;PMS5003;58267;51.156;17.044;2022-11-04T12:07:52;47;45;
70691;PMS5003;58267;51.156;17.044;2022-11-04T12:10:18;44;42;
70691;PMS5003;58267;51.156;17.044;2022-11-04T12:12:46;42;37;
70691;PMS5003;58267;51.156;17.044;2022-11-04T12:15:10;44;38;
70691;PMS5003;58267;51.156;17.044;2022-11-04T12:17:36;42;39;
70691;PMS5003;58267;51.156;17.044;2022-11-04T12:20:01;53;46;
70691;PMS5003;58267;51.156;17.044;2022-11-04T12:22:25;45;42;
70691;PMS5003;58267;51.156;17.044;2022-11-04T12:24:50;44;42;
70691;PMS5003;58267;51.156;17.044;2022-11-04T12:27:15;42;41;
70691;PMS5003;58267;51.156;17.044;2022-11-04T12:29:44;43;42;
70691;PMS5003;58267;51.156;17.044;2022-11-04T12:32:08;41;40;
70691;PMS5003;58267;51.156;17.044;2022-11-04T12:34:34;44;43;
70691;PMS5003;58267;51.156;17.044;2022-11-04T12:37:00;45;43;
70691;PMS5003;58267;51.156;17.044;2022-11-04T12:39:24;41;37;
70691;PMS5003;58267;51.156;17.044;2022-11-04T12:41:49;51;49;
70691;PMS5003;58267;51.156;17.044;2022-11-04T12:44:16;40;39;
70691;PMS5003;58267;51.156;17.044;2022-11-04T12:46:39;54;49;
70691;PMS5003;58267;51.156;17.044;2022-11-04T12:51:32;54;50;
70691;PMS5003;58267;51.156;17.044;2022-11-04T12:53:59;54;51;
70691;PMS5003;58267;51.156;17.044;2022-11-04T12:56:21;52;46;
70691;PMS5003;58267;51.156;17.044;2022-11-04T12:58:52;50;47;
70691;PMS5003;58267;51.156;17.044;2022-11-04T13:01:12;45;43;
70691;PMS5003;58267;51.156;17.044;2022-11-04T13:03:40;50;44;
70691;PMS5003;58267;51.156;17.044;2022-11-04T13:06:03;47;45;
70691;PMS5003;58267;51.156;17.044;2022-11-04T13:08:30;45;43;
70691;PMS5003;58267;51.156;17.044;2022-11-04T13:10:56;44;42;
70691;PMS5003;58267;51.156;17.044;2022-11-04T13:13:21;43;41;
70691;PMS5003;58267;51.156;17.044;2022-11-04T13:15:44;47;44;
70691;PMS5003;58267;51.156;17.044;2022-11-04T13:18:11;50;47;
70691;PMS5003;58267;51.156;17.044;2022-11-04T13:20:38;48;44;
70691;PMS5003;58267;51.156;17.044;2022-11-04T13:23:03;47;45;
70691;PMS5003;58267;51.156;17.044;2022-11-04T13:25:28;46;43;
70691;PMS5003;58267;51.156;17.044;2022-11-04T13:27:52;43;42;
70691;PMS5003;58267;51.156;17.044;2022-11-04T13:30:19;45;45;
70691;PMS5003;58267;51.156;17.044;2022-11-04T13:32:46;46;43;
70691;PMS5003;58267;51.156;17.044;2022-11-04T13:35:13;52;46;
70691;PMS5003;58267;51.156;17.044;2022-11-04T13:37:36;50;49;
70691;PMS5003;58267;51.156;17.044;2022-11-04T13:40:02;48;45;
70691;PMS5003;58267;51.156;17.044;2022-11-04T13:42:31;47;44;
70691;PMS5003;58267;51.156;17.044;2022-11-04T13:44:52;46;42;
70691;PMS5003;58267;51.156;17.044;2022-11-04T13:47:18;46;44;
70691;PMS5003;58267;51.156;17.044;2022-11-04T13:49:46;42;40;
70691;PMS5003;58267;51.156;17.044;2022-11-04T13:52:08;58;55;
70691;PMS5003;58267;51.156;17.044;2022-11-04T13:54:34;56;51;
70691;PMS5003;58267;51.156;17.044;2022-11-04T13:57:02;53;49;
70691;PMS5003;58267;51.156;17.044;2022-11-04T13:59:25;49;45;
70691;PMS5003;58267;51.156;17.044;2022-11-04T14:11:32;55;51;
70691;PMS5003;58267;51.156;17.044;2022-11-04T14:14:00;45;44;
70691;PMS5003;58267;51.156;17.044;2022-11-04T14:18:49;51;47;
70691;PMS5003;58267;51.156;17.044;2022-11-04T14:21:15;52;49;
70691;PMS5003;58267;51.156;17.044;2022-11-04T14:23:41;56;53;
70691;PMS5003;58267;51.156;17.044;2022-11-04T14:26:06;58;55;
70691;PMS5003;58267;51.156;17.044;2022-11-04T14:28:31;51;48;
70691;PMS5003;58267;51.156;17.044;2022-11-04T14:30:57;59;56;
70691;PMS5003;58267;51.156;17.044;2022-11-04T14:33:26;50;47;
70691;PMS5003;58267;51.156;17.044;2022-11-04T14:35:47;60;56;
70691;PMS5003;58267;51.156;17.044;2022-11-04T14:38:19;71;65;
70691;PMS5003;58267;51.156;17.044;2022-11-04T14:43:11;68;68;
70691;PMS5003;58267;51.156;17.044;2022-11-04T14:45:37;62;56;
70691;PMS5003;58267;51.156;17.044;2022-11-04T14:47:59;63;60;
70691;PMS5003;58267;51.156;17.044;2022-11-04T14:50:24;69;65;
70691;PMS5003;58267;51.156;17.044;2022-11-04T14:52:51;68;65;
70691;PMS5003;58267;51.156;17.044;2022-11-04T14:55:15;63;59;
70691;PMS5003;58267;51.156;17.044;2022-11-04T14:57:40;67;61;
70691;PMS5003;58267;51.156;17.044;2022-11-04T15:02:30;58;52;
70691;PMS5003;58267;51.156;17.044;2022-11-04T15:04:56;55;53;
70691;PMS5003;58267;51.156;17.044;2022-11-04T15:07:23;57;55;
70691;PMS5003;58267;51.156;17.044;2022-11-04T15:09:47;65;56;
70691;PMS5003;58267;51.156;17.044;2022-11-04T15:12:12;51;49;
70691;PMS5003;58267;51.156;17.044;2022-11-04T15:14:37;52;50;
70691;PMS5003;58267;51.156;17.044;2022-11-04T15:17:03;54;50;
70691;PMS5003;58267;51.156;17.044;2022-11-04T15:19:28;54;51;
70691;PMS5003;58267;51.156;17.044;2022-11-04T15:21:54;49;47;
70691;PMS5003;58267;51.156;17.044;2022-11-04T15:24:19;59;54;
70691;PMS5003;58267;51.156;17.044;2022-11-04T15:26:48;80;71;
70691;PMS5003;58267;51.156;17.044;2022-11-04T15:29:11;73;71;
70691;PMS5003;58267;51.156;17.044;2022-11-04T15:31:36;68;64;
70691;PMS5003;58267;51.156;17.044;2022-11-04T15:34:02;74;67;
70691;PMS5003;58267;51.156;17.044;2022-11-04T15:36:28;64;58;
70691;PMS5003;58267;51.156;17.044;2022-11-04T15:38:54;60;57;
70691;PMS5003;58267;51.156;17.044;2022-11-04T15:41:19;58;56;
70691;PMS5003;58267;51.156;17.044;2022-11-04T15:43:44;55;52;
70691;PMS5003;58267;51.156;17.044;2022-11-04T15:48:35;69;60;
70691;PMS5003;58267;51.156;17.044;2022-11-04T15:51:05;84;79;
70691;PMS5003;58267;51.156;17.044;2022-11-04T15:53:26;79;70;
70691;PMS5003;58267;51.156;17.044;2022-11-04T15:55:51;96;86;
70691;PMS5003;58267;51.156;17.044;2022-11-04T15:58:17;66;62;
70691;PMS5003;58267;51.156;17.044;2022-11-04T16:00:42;57;56;
70691;PMS5003;58267;51.156;17.044;2022-11-04T16:03:13;56;52;
70691;PMS5003;58267;51.156;17.044;2022-11-04T16:05:34;53;50;
70691;PMS5003;58267;51.156;17.044;2022-11-04T16:10:25;56;54;
70691;PMS5003;58267;51.156;17.044;2022-11-04T16:12:50;53;49;
70691;PMS5003;58267;51.156;17.044;2022-11-04T16:17:42;60;58;
70691;PMS5003;58267;51.156;17.044;2022-11-04T16:22:33;59;55;
70691;PMS5003;58267;51.156;17.044;2022-11-04T16:24:58;58;54;
70691;PMS5003;58267;51.156;17.044;2022-11-04T16:27:23;64;56;
70691;PMS5003;58267;51.156;17.044;2022-11-04T16:29:51;61;58;